ADDS METAR Data INFO
IDs: Format: Raw Decoded Include TAF

Data at: 0947 UTC 27 May 2017

KSET 270854Z AUTO 34003KT 10SM BKN034 20/19 A2984 RMK AO2 SLP098 T02000189 50000
No TAF found for KSET

KSTL 270851Z 03003KT 10SM FEW026 22/19 A2985 RMK AO2 SLP095 T02220189 56005

KSTL 270859Z 2709/2812 25004KT P6SM SCT025
  FM271100 VRB03KT 5SM BR BKN050
  FM271300 02004KT P6SM SCT040
  FM271500 13007KT P6SM BKN040
  FM280000 14007KT P6SM BKN040
  TEMPO 2801/2804 VRB35KT 2SM TSRA BKN035CB



Page loaded:  09:47 UTC  |   02:47 AM Pacific  |   03:47 AM Mountain  |   04:47 AM Central  |   05:47 AM Eastern

 

ADVISORIES

FORECASTS

FORECASTS

OBSERVATIONS

USER TOOLS

ABOUT US